Time;durP1;ratioP1;P1;durP2;ratioP2;P2;SDS_P1;SDS_P2;PMS_P1;PMS_P2;Temp;Humidity;BMP_temperature;BMP_pressure;BME280_temperature;BME280_humidity;BME280_pressure;Samples;Min_cycle;Max_cycle;Signal;HPM_P1;HPM_P2
2023/05/26 00:00:26;;;;;;;;;;;;;;;19.40;64.95;97041.50;599080;234;68791;-62
2023/05/26 00:02:53;;;;;;;;;;;;;;;19.39;64.94;97046.00;599017;235;66450;-62
2023/05/26 00:05:20;;;;;;;;;;;;;;;19.39;64.94;97043.33;598960;235;65129;-62
2023/05/26 00:07:48;;;;;;;;;;;;;;;19.39;64.92;97043.33;598894;235;68855;-62
2023/05/26 00:10:16;;;;;;;;;;;;;;;19.40;64.92;97052.95;598946;234;68985;-63
2023/05/26 00:12:43;;;;;;;;;;;;;;;19.39;64.92;97037.20;598913;235;65133;-62
2023/05/26 00:15:11;;;;;;;;;;;;;;;19.40;64.92;97041.50;598945;234;69019;-61
2023/05/26 00:17:38;;;;;;;;;;;;;;;19.39;64.89;97048.66;598938;235;68696;-61
2023/05/26 00:20:07;;;;;;;;;;;;;;;19.39;64.87;97039.88;598908;235;62883;-61
2023/05/26 00:22:35;;;;;;;;;;;;;;;19.39;64.87;97042.54;598985;237;68814;-61
2023/05/26 00:25:03;;;;;;;;;;;;;;;19.40;64.86;97054.82;599131;234;66339;-61
2023/05/26 00:27:30;;;;;;;;;;;;;;;19.39;64.86;97055.86;599114;234;63066;-61
2023/05/26 00:29:58;;;;;;;;;;;;;;;19.39;64.83;97050.53;598982;237;65882;-61
2023/05/26 00:32:26;;;;;;;;;;;;;;;19.38;64.86;97055.06;599239;234;67125;-61
2023/05/26 00:34:53;;;;;;;;;;;;;;;19.38;64.83;97062.27;599019;234;63149;-60
2023/05/26 00:37:22;;;;;;;;;;;;;;;19.39;64.82;97077.98;598983;235;66618;-61
2023/05/26 00:39:50;;;;;;;;;;;;;;;19.38;64.80;97080.92;599410;234;68393;-61
2023/05/26 00:42:17;;;;;;;;;;;;;;;19.39;64.80;97090.51;599051;235;65037;-61
2023/05/26 00:44:45;;;;;;;;;;;;;;;19.38;64.78;97103.03;599043;235;68457;-61
2023/05/26 00:47:12;;;;;;;;;;;;;;;19.39;64.80;97103.83;599078;235;68358;-61
2023/05/26 00:49:40;;;;;;;;;;;;;;;19.39;64.78;97115.29;599019;235;62483;-61
2023/05/26 00:52:08;;;;;;;;;;;;;;;19.40;64.80;97132.11;599021;235;66628;-61
2023/05/26 00:54:35;;;;;;;;;;;;;;;19.39;64.82;97151.80;599015;234;68399;-61
2023/05/26 00:57:03;;;;;;;;;;;;;;;19.39;64.82;97143.80;599031;235;65002;-61
2023/05/26 00:59:31;;;;;;;;;;;;;;;19.38;64.78;97147.55;598929;234;68668;-61
2023/05/26 01:01:59;;;;;;;;;;;;;;;19.38;64.80;97136.88;599012;234;68725;-62
2023/05/26 01:04:27;;;;;;;;;;;;;;;19.37;64.80;97132.59;599035;235;65119;-63
2023/05/26 01:06:55;;;;;;;;;;;;;;;19.38;64.80;97134.22;599113;235;66523;-62
2023/05/26 01:09:23;;;;;;;;;;;;;;;19.38;64.77;97123.56;599538;234;68744;-62
2023/05/26 01:11:52;;;;;;;;;;;;;;;19.37;64.77;97128.09;599054;234;63882;-62
2023/05/26 01:14:30;;;;;;;;;;;;;;;19.38;64.77;97134.22;598952;236;68655;-62
2023/05/26 01:16:59;;;;;;;;;;;;;;;19.37;64.78;97144.08;598993;235;68567;-62
2023/05/26 01:19:46;;;;;;;;;;;;;;;19.38;64.78;97142.21;599051;235;65142;-62
2023/05/26 01:22:21;;;;;;;;;;;;;;;19.38;64.78;97142.21;599131;234;69506;-62
2023/05/26 01:24:50;;;;;;;;;;;;;;;19.38;64.76;97139.55;598944;234;66847;-62
2023/05/26 01:27:35;;;;;;;;;;;;;;;19.36;64.74;97131.00;598088;235;62845;-62
2023/05/26 01:30:02;;;;;;;;;;;;;;;19.36;64.74;97139.00;598211;235;67461;-60
2023/05/26 01:32:30;;;;;;;;;;;;;;;19.36;64.77;97137.13;599005;235;68593;-60
2023/05/26 01:34:57;;;;;;;;;;;;;;;19.36;64.75;97131.00;599045;235;64899;-62
2023/05/26 01:37:25;;;;;;;;;;;;;;;19.36;64.75;97128.34;598978;235;68662;-62
2023/05/26 01:39:54;;;;;;;;;;;;;;;19.35;64.73;97124.88;599052;235;67375;-62
2023/05/26 01:42:23;;;;;;;;;;;;;;;19.37;64.71;97124.59;599084;234;64991;-62
2023/05/26 01:45:01;;;;;;;;;;;;;;;19.35;64.73;97113.42;599077;234;68289;-61
2023/05/26 01:47:30;;;;;;;;;;;;;;;19.35;64.72;97118.75;599081;234;66259;-60
2023/05/26 01:50:00;;;;;;;;;;;;;;;19.36;64.69;97123.00;599262;234;62760;-60
2023/05/26 01:52:28;;;;;;;;;;;;;;;19.35;64.69;97111.55;599000;234;69077;-61
2023/05/26 01:54:57;;;;;;;;;;;;;;;19.35;64.66;97121.41;598949;235;68543;-61
2023/05/26 01:57:25;;;;;;;;;;;;;;;19.35;64.67;97119.55;598874;234;65005;-60
2023/05/26 01:59:53;;;;;;;;;;;;;;;19.35;64.71;97121.41;601162;235;66695;-61
2023/05/26 02:02:21;;;;;;;;;;;;;;;19.35;64.70;97116.08;602100;235;68727;-61
2023/05/26 02:04:48;;;;;;;;;;;;;;;19.35;64.71;97111.55;601749;235;65067;-61
2023/05/26 02:07:19;;;;;;;;;;;;;;;19.36;64.67;97109.68;602095;235;47298;-61
2023/05/26 02:09:47;;;;;;;;;;;;;;;19.36;64.67;97099.02;601922;235;69095;-61
2023/05/26 02:12:15;;;;;;;;;;;;;;;19.35;64.67;97098.22;602119;235;62794;-61
2023/05/26 02:14:42;;;;;;;;;;;;;;;19.34;64.67;97098.47;602020;235;69593;-61
2023/05/26 02:17:10;;;;;;;;;;;;;;;19.36;64.66;97099.02;602074;235;66418;-61
2023/05/26 02:19:38;;;;;;;;;;;;;;;19.34;64.65;97096.60;602074;235;65767;-61
2023/05/26 02:22:06;;;;;;;;;;;;;;;19.35;64.67;97097.43;602129;235;69540;-61
2023/05/26 02:24:33;;;;;;;;;;;;;;;19.35;64.63;97100.09;601934;235;66442;-61
2023/05/26 02:27:01;;;;;;;;;;;;;;;19.34;64.63;97093.94;601990;235;64726;-61
2023/05/26 02:29:28;;;;;;;;;;;;;;;19.34;64.65;97091.27;602029;235;68664;-61
2023/05/26 02:31:55;;;;;;;;;;;;;;;19.34;64.62;97087.81;602124;235;68431;-61
2023/05/26 02:34:23;;;;;;;;;;;;;;;19.34;64.63;97080.61;602112;235;64964;-61
2023/05/26 02:36:55;;;;;;;;;;;;;;;19.34;64.62;97074.48;601838;235;66445;-61
2023/05/26 02:39:20;;;;;;;;;;;;;;;19.35;64.62;97073.45;599631;235;68907;-61
2023/05/26 02:41:47;;;;;;;;;;;;;;;19.34;64.60;97063.83;602113;235;65065;-62
2023/05/26 02:44:14;;;;;;;;;;;;;;;19.34;64.62;97066.49;602117;235;66414;-62
2023/05/26 02:46:42;;;;;;;;;;;;;;;19.34;64.60;97063.83;602096;235;66448;-62
2023/05/26 02:49:09;;;;;;;;;;;;;;;19.33;64.57;97055.03;602056;235;63040;-62
2023/05/26 02:51:37;;;;;;;;;;;;;;;19.34;64.59;97050.50;602132;235;67309;-63
2023/05/26 02:54:05;;;;;;;;;;;;;;;19.34;64.61;97043.30;602126;235;66332;-62
2023/05/26 02:56:32;;;;;;;;;;;;;;;19.34;64.63;97037.98;602132;235;62783;-62
2023/05/26 02:59:00;;;;;;;;;;;;;;;19.33;64.60;97028.39;602059;235;66090;-62
2023/05/26 03:01:29;;;;;;;;;;;;;;;19.34;64.62;97023.86;602098;235;68769;-62
2023/05/26 03:03:56;;;;;;;;;;;;;;;19.34;64.61;97024.66;602076;235;62830;-62
2023/05/26 03:06:24;;;;;;;;;;;;;;;19.34;64.59;97015.86;602087;235;66867;-62
2023/05/26 03:08:52;;;;;;;;;;;;;;;19.34;64.58;97021.19;602103;235;68868;-63
2023/05/26 03:11:21;;;;;;;;;;;;;;;19.34;64.57;97031.85;602097;235;65690;-62
2023/05/26 03:13:49;;;;;;;;;;;;;;;19.33;64.59;97019.59;602072;235;68820;-61
2023/05/26 03:16:17;;;;;;;;;;;;;;;19.33;64.60;97019.59;602064;235;66699;-61
2023/05/26 03:18:45;;;;;;;;;;;;;;;19.32;64.60;97016.14;602076;235;66143;-61
2023/05/26 03:21:13;;;;;;;;;;;;;;;19.33;64.59;97020.39;602146;235;68755;-61
2023/05/26 03:23:40;;;;;;;;;;;;;;;19.33;64.63;97022.27;602131;235;68661;-61
2023/05/26 03:26:08;;;;;;;;;;;;;;;19.32;64.60;97021.47;602095;235;65997;-61
2023/05/26 03:28:35;;;;;;;;;;;;;;;19.33;64.64;97016.94;602083;235;69657;-61
2023/05/26 03:31:03;;;;;;;;;;;;;;;19.34;64.66;97013.20;602124;235;68745;-61
2023/05/26 03:33:31;;;;;;;;;;;;;;;19.32;64.67;97002.02;602117;235;62430;-61
2023/05/26 03:36:00;;;;;;;;;;;;;;;19.33;64.69;97003.61;602082;235;69534;-61
2023/05/26 03:38:28;;;;;;;;;;;;;;;19.32;64.68;96997.48;602112;235;67360;-61
2023/05/26 03:40:57;;;;;;;;;;;;;;;19.32;64.68;97002.81;596824;235;65043;-61
2023/05/26 03:43:26;;;;;;;;;;;;;;;19.32;64.69;97002.02;602116;235;69397;-61
2023/05/26 03:45:54;;;;;;;;;;;;;;;19.33;64.69;97009.73;602106;235;68686;-62
2023/05/26 03:48:21;;;;;;;;;;;;;;;19.32;64.73;97008.14;602135;235;62911;-62
2023/05/26 03:50:49;;;;;;;;;;;;;;;19.32;64.75;97020.67;596843;235;69925;-62
2023/05/26 03:53:17;;;;;;;;;;;;;;;19.33;64.77;97027.59;602016;235;68849;-62
2023/05/26 03:55:44;;;;;;;;;;;;;;;19.32;64.77;97031.33;602106;235;64939;-62
2023/05/26 03:58:12;;;;;;;;;;;;;;;19.31;64.81;97030.50;601996;235;68787;-61
2023/05/26 04:00:40;;;;;;;;;;;;;;;19.32;64.82;97026.00;599007;235;66490;-62
2023/05/26 04:03:07;;;;;;;;;;;;;;;19.32;64.85;97031.33;598999;235;63540;-62
2023/05/26 04:05:35;;;;;;;;;;;;;;;19.32;64.86;97028.66;599025;235;67297;-62
2023/05/26 04:08:03;;;;;;;;;;;;;;;19.32;64.91;97031.33;598978;235;68939;-62
2023/05/26 04:10:30;;;;;;;;;;;;;;;19.30;64.94;97032.38;599041;235;65083;-62
2023/05/26 04:12:58;;;;;;;;;;;;;;;19.32;64.98;97031.33;599016;235;65852;-62
2023/05/26 04:15:26;;;;;;;;;;;;;;;19.30;65.01;97029.71;599030;235;68517;-62
2023/05/26 04:17:53;;;;;;;;;;;;;;;19.31;65.04;97035.83;599034;235;64875;-62
2023/05/26 04:20:21;;;;;;;;;;;;;;;19.30;65.07;97027.05;598955;235;68996;-62
2023/05/26 04:22:49;;;;;;;;;;;;;;;19.30;65.07;97032.38;598987;235;66352;-62
2023/05/26 04:25:17;;;;;;;;;;;;;;;19.30;65.11;97031.58;599137;235;63646;-62
2023/05/26 04:27:47;;;;;;;;;;;;;;;19.30;65.11;97035.03;598651;235;51081;-62
2023/05/26 04:30:16;;;;;;;;;;;;;;;19.29;65.08;97036.11;595287;235;49629;-62
2023/05/26 04:32:47;;;;;;;;;;;;;;;19.30;65.07;97048.36;597009;235;45973;-62
2023/05/26 04:35:22;;;;;;;;;;;;;;;19.28;65.10;97037.16;596770;235;48219;-64
2023/05/26 04:37:53;;;;;;;;;;;;;;;19.30;65.13;97045.70;599006;235;67082;-63
2023/05/26 04:40:19;;;;;;;;;;;;;;;19.29;65.16;97040.64;599046;235;62754;-63
2023/05/26 04:42:48;;;;;;;;;;;;;;;19.29;65.18;97041.44;599002;235;68479;-63
2023/05/26 04:45:16;;;;;;;;;;;;;;;19.29;65.17;97043.31;599031;235;68523;-63
2023/05/26 04:47:45;;;;;;;;;;;;;;;19.29;65.15;97043.31;599019;235;41480;-63
2023/05/26 04:50:16;;;;;;;;;;;;;;;19.28;65.15;97050.47;599038;235;68625;-63
2023/05/26 04:52:42;;;;;;;;;;;;;;;19.28;65.15;97055.80;598982;235;66377;-63
2023/05/26 04:55:09;;;;;;;;;;;;;;;19.28;65.15;97050.47;599079;235;62935;-63
2023/05/26 04:57:37;;;;;;;;;;;;;;;19.28;65.17;97050.47;599015;235;69226;-63
2023/05/26 05:00:10;;;;;;;;;;;;;;;19.28;65.20;97050.47;598952;235;68533;-63
2023/05/26 05:02:36;;;;;;;;;;;;;;;19.27;65.24;97038.22;599004;235;62903;-63
2023/05/26 05:05:08;;;;;;;;;;;;;;;19.28;65.23;97050.47;598975;235;46749;-64
2023/05/26 05:07:35;;;;;;;;;;;;;;;19.29;65.20;97062.75;598969;235;68978;-61
2023/05/26 05:10:03;;;;;;;;;;;;;;;19.28;65.23;97050.47;599017;235;63710;-62
2023/05/26 05:12:33;;;;;;;;;;;;;;;19.28;65.28;97063.80;599065;235;47584;-62
2023/05/26 05:15:02;;;;;;;;;;;;;;;19.28;65.31;97055.80;599014;235;68633;-62
2023/05/26 05:17:30;;;;;;;;;;;;;;;19.28;65.28;97063.00;599016;235;65245;-59
2023/05/26 05:19:57;;;;;;;;;;;;;;;19.27;65.31;97064.87;599031;235;66552;-62
2023/05/26 05:22:25;;;;;;;;;;;;;;;19.27;65.31;97064.87;599020;235;68642;-62
2023/05/26 05:24:52;;;;;;;;;;;;;;;19.27;65.31;97070.20;598977;235;64929;-62
2023/05/26 05:27:20;;;;;;;;;;;;;;;19.27;65.31;97072.86;598951;235;68261;-62
2023/05/26 05:29:48;;;;;;;;;;;;;;;19.27;65.32;97080.86;598966;235;69256;-61
2023/05/26 05:32:16;;;;;;;;;;;;;;;19.28;65.31;97082.45;599003;235;65691;-61
2023/05/26 05:34:45;;;;;;;;;;;;;;;19.27;65.33;97085.39;599023;235;47770;-60
2023/05/26 05:37:13;;;;;;;;;;;;;;;19.27;65.34;97088.84;599009;235;69212;-60
2023/05/26 05:39:41;;;;;;;;;;;;;;;19.27;65.38;97080.86;599013;235;65134;-60
2023/05/26 05:42:08;;;;;;;;;;;;;;;19.27;65.41;97088.84;599045;235;69339;-60
2023/05/26 05:44:36;;;;;;;;;;;;;;;19.26;65.45;97084.59;598936;235;69292;-60
2023/05/26 05:47:04;;;;;;;;;;;;;;;19.27;65.45;97091.52;598906;235;62914;-60
2023/05/26 05:49:33;;;;;;;;;;;;;;;19.27;65.46;97096.05;597342;235;49562;-60
2023/05/26 05:52:02;;;;;;;;;;;;;;;19.26;65.48;97100.58;598927;235;69404;-60
2023/05/26 05:54:30;;;;;;;;;;;;;;;19.26;65.48;97095.25;599038;235;65166;-61
2023/05/26 05:56:58;;;;;;;;;;;;;;;19.26;65.53;97092.58;598909;235;65886;-61
2023/05/26 05:59:26;;;;;;;;;;;;;;;19.27;65.56;97085.39;599019;235;65935;-60
2023/05/26 06:01:53;;;;;;;;;;;;;;;19.26;65.57;97081.92;598956;235;62947;-64
2023/05/26 06:04:21;;;;;;;;;;;;;;;19.26;65.56;97081.92;598981;235;66044;-61
2023/05/26 06:06:48;;;;;;;;;;;;;;;19.26;65.61;97081.92;597111;235;68294;-61
2023/05/26 06:09:16;;;;;;;;;;;;;;;19.25;65.59;97085.63;599510;234;62676;-61
2023/05/26 06:11:43;;;;;;;;;;;;;;;19.24;65.21;97085.91;600833;235;68457;-61
2023/05/26 06:14:12;;;;;;;;;;;;;;;19.24;66.10;97086.70;599738;235;68048;-62
2023/05/26 06:16:40;;;;;;;;;;;;;;;19.25;66.01;97090.96;599416;236;65155;-62
2023/05/26 06:19:09;;;;;;;;;;;;;;;19.26;66.12;97089.92;599519;235;68424;-62
2023/05/26 06:21:38;;;;;;;;;;;;;;;19.26;65.98;97100.58;599383;235;66710;-69
2023/05/26 06:24:06;;;;;;;;;;;;;;;19.28;65.97;97097.64;599508;235;65672;-63
2023/05/26 06:26:35;;;;;;;;;;;;;;;19.27;65.89;97104.84;599544;235;66159;-62
2023/05/26 06:29:03;;;;;;;;;;;;;;;19.27;65.86;97096.84;599545;235;68731;-62
2023/05/26 06:31:31;;;;;;;;;;;;;;;19.27;65.73;97107.50;599021;236;63778;-63
2023/05/26 06:34:15;;;;;;;;;;;;;;;19.27;65.90;97110.16;599444;236;45702;-64
2023/05/26 06:36:42;;;;;;;;;;;;;;;19.29;65.98;97117.91;599417;236;66634;-68
2023/05/26 06:39:10;;;;;;;;;;;;;;;19.28;65.89;97114.42;599493;236;62656;-69
2023/05/26 06:41:38;;;;;;;;;;;;;;;19.29;65.96;97121.38;599399;236;65505;-67
2023/05/26 06:44:07;;;;;;;;;;;;;;;19.29;65.90;97116.05;599450;235;66375;-67
2023/05/26 06:46:34;;;;;;;;;;;;;;;19.29;65.88;97110.72;599507;236;65190;-63
2023/05/26 06:49:02;;;;;;;;;;;;;;;19.28;65.86;97109.09;599411;235;69546;-63
2023/05/26 06:51:35;;;;;;;;;;;;;;;19.30;65.90;97111.52;598545;236;47323;-61
2023/05/26 06:54:03;;;;;;;;;;;;;;;19.30;65.89;97109.64;599440;236;62686;-63
2023/05/26 06:56:30;;;;;;;;;;;;;;;19.31;65.86;97107.78;600059;234;68484;-62
2023/05/26 06:58:58;;;;;;;;;;;;;;;19.30;65.85;97117.64;602612;235;68957;-62
2023/05/26 07:01:26;;;;;;;;;;;;;;;19.32;65.94;97116.59;601251;235;65006;-62
2023/05/26 07:03:53;;;;;;;;;;;;;;;19.32;65.96;97116.59;601028;235;66005;-62
2023/05/26 07:06:21;;;;;;;;;;;;;;;19.32;65.86;97113.94;600315;235;68353;-62
2023/05/26 07:08:50;;;;;;;;;;;;;;;19.33;65.89;97110.20;597749;235;62748;-62
2023/05/26 07:11:19;;;;;;;;;;;;;;;19.32;65.84;97116.59;598940;235;45629;-62
2023/05/26 07:13:50;;;;;;;;;;;;;;;19.33;65.86;97144.84;599524;236;68608;-62
2023/05/26 07:16:17;;;;;;;;;;;;;;;19.33;66.10;97121.66;599516;236;65044;-67
2023/05/26 07:18:45;;;;;;;;;;;;;;;19.35;65.99;97113.42;599512;236;66266;-63
2023/05/26 07:21:15;;;;;;;;;;;;;;;19.37;65.72;97112.10;599521;236;67125;-61
2023/05/26 07:23:44;;;;;;;;;;;;;;;19.38;65.57;97108.37;599209;236;65752;-61
2023/05/26 07:26:12;;;;;;;;;;;;;;;19.41;65.66;97112.37;599463;236;68590;-60
2023/05/26 07:28:41;;;;;;;;;;;;;;;19.43;65.63;97112.93;599351;236;68440;-61
2023/05/26 07:31:09;;;;;;;;;;;;;;;19.44;65.59;97111.86;598870;236;65731;-61
2023/05/26 07:33:38;;;;;;;;;;;;;;;19.45;65.68;97114.28;599182;236;48485;-61
2023/05/26 07:36:06;;;;;;;;;;;;;;;19.45;65.70;97106.28;599407;236;69568;-61
2023/05/26 07:38:36;;;;;;;;;;;;;;;19.46;65.71;97107.88;599799;236;65200;-62
2023/05/26 07:41:04;;;;;;;;;;;;;;;19.47;65.69;97103.34;600975;236;66368;-65
2023/05/26 07:43:31;;;;;;;;;;;;;;;19.49;66.18;97095.90;600899;236;68517;-62
2023/05/26 07:45:59;;;;;;;;;;;;;;;19.47;65.94;97096.14;600987;236;62946;-62
2023/05/26 07:48:28;;;;;;;;;;;;;;;19.46;65.75;97093.76;600694;236;66403;-61
2023/05/26 07:50:56;;;;;;;;;;;;;;;19.44;65.84;97088.67;600340;236;69119;-61
2023/05/26 07:53:23;;;;;;;;;;;;;;;19.42;66.17;97087.32;600951;236;65771;-61
2023/05/26 07:55:51;;;;;;;;;;;;;;;19.41;66.17;97096.39;600874;236;68255;-62
2023/05/26 07:58:18;;;;;;;;;;;;;;;19.43;66.41;97088.95;600786;235;68503;-60
2023/05/26 08:00:46;;;;;;;;;;;;;;;19.45;65.97;97092.95;602216;235;65123;-62
2023/05/26 08:03:13;;;;;;;;;;;;;;;19.44;65.68;97090.54;599799;236;68758;-63
2023/05/26 08:05:42;;;;;;;;;;;;;;;19.43;65.99;97089.74;599827;236;68361;-62
2023/05/26 08:08:11;;;;;;;;;;;;;;;19.43;66.16;97094.28;599722;236;62965;-62
2023/05/26 08:10:40;;;;;;;;;;;;;;;19.41;66.17;97097.19;599662;236;50926;-61
2023/05/26 08:13:09;;;;;;;;;;;;;;;19.42;66.28;97092.66;599861;236;68481;-61
2023/05/26 08:15:36;;;;;;;;;;;;;;;19.41;66.29;97091.06;599741;236;62927;-61
2023/05/26 08:18:04;;;;;;;;;;;;;;;19.41;66.28;97096.39;599842;236;66254;-61
2023/05/26 08:20:31;;;;;;;;;;;;;;;19.40;66.33;97098.26;599798;236;68438;-61
2023/05/26 08:22:59;;;;;;;;;;;;;;;19.39;66.33;97098.50;599852;236;65065;-61
2023/05/26 08:25:27;;;;;;;;;;;;;;;19.40;66.37;97094.80;599869;236;67000;-63
2023/05/26 08:27:54;;;;;;;;;;;;;;;19.40;66.38;97098.26;599861;236;66450;-62
2023/05/26 08:30:22;;;;;;;;;;;;;;;19.40;66.31;97094.80;599742;236;65033;-62
2023/05/26 08:32:49;;;;;;;;;;;;;;;19.40;66.39;97095.59;599830;236;68324;-61
2023/05/26 08:35:17;;;;;;;;;;;;;;;19.39;66.34;97087.84;599877;236;68556;-62
2023/05/26 08:37:44;;;;;;;;;;;;;;;19.40;66.40;97095.59;599840;236;65026;-61
2023/05/26 08:40:14;;;;;;;;;;;;;;;19.40;66.43;97092.92;594633;236;66217;-61
2023/05/26 08:42:45;;;;;;;;;;;;;;;19.39;66.33;97087.84;599898;236;67746;-62
2023/05/26 08:45:13;;;;;;;;;;;;;;;19.40;66.39;97087.59;599891;236;62948;-62
2023/05/26 08:47:41;;;;;;;;;;;;;;;19.40;66.41;97086.80;599914;236;68256;-62
2023/05/26 08:50:10;;;;;;;;;;;;;;;19.40;66.44;97094.80;599906;236;66187;-61
2023/05/26 08:52:40;;;;;;;;;;;;;;;19.40;66.45;97092.13;599867;236;65041;-62
2023/05/26 08:55:08;;;;;;;;;;;;;;;19.40;66.49;97084.14;599812;236;66097;-62
2023/05/26 08:57:38;;;;;;;;;;;;;;;19.39;66.53;97085.98;597691;236;68377;-62
2023/05/26 09:00:07;;;;;;;;;;;;;;;19.39;66.53;97087.84;596786;237;64992;-62
2023/05/26 09:02:35;;;;;;;;;;;;;;;19.40;66.51;97086.80;598274;235;66161;-62
2023/05/26 09:05:02;;;;;;;;;;;;;;;19.40;66.53;97092.13;599585;236;68417;-62
2023/05/26 09:07:30;;;;;;;;;;;;;;;19.40;66.54;97078.81;599751;236;65087;-62
2023/05/26 09:09:59;;;;;;;;;;;;;;;19.40;66.61;97081.47;599704;236;68264;-62
2023/05/26 09:12:30;;;;;;;;;;;;;;;19.40;66.76;97081.47;599573;236;68498;-61
2023/05/26 09:14:57;;;;;;;;;;;;;;;19.40;66.85;97079.60;599583;236;63114;-61
2023/05/26 09:17:24;;;;;;;;;;;;;;;19.41;66.89;97077.73;599879;236;66623;-61
2023/05/26 09:19:53;;;;;;;;;;;;;;;19.40;66.94;97073.48;599805;236;66373;-61
2023/05/26 09:22:22;;;;;;;;;;;;;;;19.40;66.96;97068.15;599786;236;62928;-62
2023/05/26 09:24:50;;;;;;;;;;;;;;;19.41;66.98;97065.20;599831;236;66353;-62
2023/05/26 09:27:22;;;;;;;;;;;;;;;19.41;66.97;97059.08;599792;236;68694;-61
2023/05/26 09:29:53;;;;;;;;;;;;;;;19.41;66.99;97059.08;599882;236;65122;-61
2023/05/26 09:32:23;;;;;;;;;;;;;;;19.40;66.99;97058.28;599877;236;66392;-62
2023/05/26 09:34:51;;;;;;;;;;;;;;;19.41;67.01;97053.75;599724;236;69230;-61
2023/05/26 09:37:18;;;;;;;;;;;;;;;19.40;67.02;97052.16;599849;236;64931;-60
2023/05/26 09:39:46;;;;;;;;;;;;;;;19.41;66.58;97059.08;599810;236;66269;-60
2023/05/26 09:42:13;;;;;;;;;;;;;;;19.41;66.78;97048.42;599801;236;66412;-60
2023/05/26 09:44:42;;;;;;;;;;;;;;;19.42;66.99;97047.34;599921;236;61884;-60
2023/05/26 09:47:14;;;;;;;;;;;;;;;19.41;66.64;97040.42;599594;236;68498;-60
2023/05/26 09:49:41;;;;;;;;;;;;;;;19.41;66.63;97037.76;599827;236;66477;-61
2023/05/26 09:52:09;;;;;;;;;;;;;;;19.42;66.73;97034.02;599863;236;64963;-61
2023/05/26 09:54:36;;;;;;;;;;;;;;;19.41;66.67;97029.77;599757;236;66270;-61
2023/05/26 09:57:05;;;;;;;;;;;;;;;19.41;66.49;97027.09;599886;236;67459;-61
2023/05/26 09:59:38;;;;;;;;;;;;;;;19.42;66.46;97028.69;598778;236;63783;-61
2023/05/26 10:02:05;;;;;;;;;;;;;;;19.40;66.51;97022.84;597906;237;66260;-61
2023/05/26 10:04:32;;;;;;;;;;;;;;;19.42;66.51;97023.36;597964;237;69143;-62
2023/05/26 10:07:00;;;;;;;;;;;;;;;19.41;66.55;97022.56;597985;237;65054;-61
2023/05/26 10:09:35;;;;;;;;;;;;;;;19.42;66.47;97020.70;598048;237;68802;-61
2023/05/26 10:12:05;;;;;;;;;;;;;;;19.41;66.50;97011.11;598078;237;68559;-61
2023/05/26 10:14:35;;;;;;;;;;;;;;;19.41;66.48;97003.11;597946;237;64901;-61
2023/05/26 10:17:03;;;;;;;;;;;;;;;19.41;66.39;97008.44;598011;237;68818;-62
2023/05/26 10:19:31;;;;;;;;;;;;;;;19.41;66.28;97003.11;597998;237;68786;-63
2023/05/26 10:22:00;;;;;;;;;;;;;;;19.41;66.27;97005.78;598105;237;65031;-62
2023/05/26 10:24:29;;;;;;;;;;;;;;;19.42;66.24;96996.71;597954;237;68547;-62
2023/05/26 10:27:05;;;;;;;;;;;;;;;19.43;67.26;96993.00;598006;237;66663;-62
2023/05/26 10:29:51;;;;;;;;;;;;;;;19.44;66.63;96989.27;597935;237;62880;-62
2023/05/26 10:32:36;;;;;;;;;;;;;;;19.43;66.83;96987.67;598012;237;66905;-62
2023/05/26 10:35:05;;;;;;;;;;;;;;;19.43;66.95;96987.67;598046;237;66697;-62
2023/05/26 10:37:33;;;;;;;;;;;;;;;19.43;66.89;96979.67;597152;237;63021;-61
2023/05/26 10:40:02;;;;;;;;;;;;;;;19.42;66.90;96986.05;598062;237;66612;-61
2023/05/26 10:42:31;;;;;;;;;;;;;;;19.43;66.89;96979.67;598060;237;66581;-62
2023/05/26 10:44:58;;;;;;;;;;;;;;;19.42;66.92;96978.05;598007;237;65088;-61
2023/05/26 10:47:27;;;;;;;;;;;;;;;19.43;66.79;96971.69;598064;237;66696;-62
2023/05/26 10:49:58;;;;;;;;;;;;;;;19.42;66.48;96970.06;598023;237;66596;-62
2023/05/26 10:52:30;;;;;;;;;;;;;;;19.42;66.44;96964.73;597985;237;65079;-60
2023/05/26 10:55:00;;;;;;;;;;;;;;;19.42;66.39;96954.06;597095;237;68781;-61
2023/05/26 10:57:29;;;;;;;;;;;;;;;19.44;66.31;96962.61;598057;237;68784;-61
2023/05/26 10:59:57;;;;;;;;;;;;;;;19.44;66.30;96946.63;597951;237;63003;-61
2023/05/26 11:02:24;;;;;;;;;;;;;;;19.43;66.23;96940.50;597983;237;66695;-61
2023/05/26 11:04:52;;;;;;;;;;;;;;;19.44;66.19;96941.30;598034;237;66465;-61
2023/05/26 11:07:24;;;;;;;;;;;;;;;19.43;66.11;96940.50;598011;237;65055;-61
2023/05/26 11:09:59;;;;;;;;;;;;;;;19.43;66.11;96934.37;598113;237;68868;-61
2023/05/26 11:12:26;;;;;;;;;;;;;;;19.43;66.07;96932.50;597998;237;68474;-61
2023/05/26 11:14:54;;;;;;;;;;;;;;;19.44;66.07;96933.30;597995;237;65169;-62
2023/05/26 11:17:22;;;;;;;;;;;;;;;19.44;66.08;96925.30;598049;237;68832;-62
2023/05/26 11:19:58;;;;;;;;;;;;;;;19.44;66.17;96920.77;597982;237;66871;-61
2023/05/26 11:22:26;;;;;;;;;;;;;;;19.44;66.11;96920.77;598056;237;65124;-62
2023/05/26 11:24:56;;;;;;;;;;;;;;;19.45;66.11;96918.89;598060;237;66561;-61
2023/05/26 11:27:24;;;;;;;;;;;;;;;19.45;66.06;96910.91;597974;237;68693;-62
2023/05/26 11:30:01;;;;;;;;;;;;;;;19.45;66.14;96908.23;598060;237;62919;-62
2023/05/26 11:32:28;;;;;;;;;;;;;;;19.45;66.12;96901.06;598000;237;68746;-62
2023/05/26 11:34:56;;;;;;;;;;;;;;;19.45;66.14;96917.05;597976;237;68866;-62
2023/05/26 11:37:26;;;;;;;;;;;;;;;19.44;66.00;96912.77;598120;237;65144;-63
2023/05/26 11:39:55;;;;;;;;;;;;;;;19.45;66.04;96917.05;598022;234;68518;-64
2023/05/26 11:42:22;;;;;;;;;;;;;;;19.45;66.03;96919.72;597950;237;68816;-62
2023/05/26 11:44:50;;;;;;;;;;;;;;;19.46;65.96;96931.97;598026;237;65245;-61
2023/05/26 11:47:18;;;;;;;;;;;;;;;19.46;65.98;96939.17;597976;237;69063;-61
2023/05/26 11:49:48;;;;;;;;;;;;;;;19.46;65.97;96963.16;597885;237;68792;-61
2023/05/26 11:52:16;;;;;;;;;;;;;;;19.47;65.97;96988.73;597978;237;65180;-62
2023/05/26 11:54:44;;;;;;;;;;;;;;;19.46;66.01;96998.60;598002;237;65376;-62
2023/05/26 11:57:33;;;;;;;;;;;;;;;19.47;66.36;96988.73;597957;237;68590;-62
2023/05/26 12:00:09;;;;;;;;;;;;;;;19.46;66.28;97022.59;598083;237;62925;-62
2023/05/26 12:02:31;;;;;;;;;;;;;;;19.46;65.97;97011.13;597850;235;48870;-63
2023/05/26 12:04:58;;;;;;;;;;;;;;;19.47;66.29;97015.39;598079;234;68519;-61
2023/05/26 12:07:30;;;;;;;;;;;;;;;19.47;66.11;97004.73;598293;236;64976;-61
2023/05/26 12:10:08;;;;;;;;;;;;;;;19.46;66.11;97014.59;597868;236;68785;-62
2023/05/26 12:12:51;;;;;;;;;;;;;;;19.46;66.01;97011.92;599521;236;68740;-62
2023/05/26 12:15:20;;;;;;;;;;;;;;;19.45;66.11;97007.67;600006;235;65066;-62
2023/05/26 12:17:48;;;;;;;;;;;;;;;19.46;66.07;96995.14;599091;236;68746;-62
2023/05/26 12:20:17;;;;;;;;;;;;;;;19.46;66.00;97003.93;599748;236;68854;-63
2023/05/26 12:22:45;;;;;;;;;;;;;;;19.46;65.95;96989.81;599573;236;65025;-63
2023/05/26 12:25:12;;;;;;;;;;;;;;;19.46;66.00;96987.94;599575;236;68837;-63
2023/05/26 12:27:41;;;;;;;;;;;;;;;19.46;66.02;96987.14;599595;235;68557;-63
2023/05/26 12:30:19;;;;;;;;;;;;;;;19.46;65.80;96987.14;599198;236;62945;-62
2023/05/26 12:32:48;;;;;;;;;;;;;;;19.46;65.78;96979.15;599078;237;68813;-62
2023/05/26 12:35:15;;;;;;;;;;;;;;;19.47;65.77;96978.88;599028;237;68955;-62
2023/05/26 12:37:43;;;;;;;;;;;;;;;19.46;65.69;96965.83;599056;237;62897;-62
2023/05/26 12:40:11;;;;;;;;;;;;;;;19.47;65.80;96960.22;596385;237;66669;-63
2023/05/26 12:42:38;;;;;;;;;;;;;;;19.46;65.63;96957.83;599043;237;68679;-62
2023/05/26 12:45:06;;;;;;;;;;;;;;;19.47;65.70;96957.55;598950;237;62897;-63
2023/05/26 12:47:34;;;;;;;;;;;;;;;19.48;65.62;96955.70;599594;235;68629;-62
2023/05/26 12:50:05;;;;;;;;;;;;;;;19.47;65.63;96951.42;598996;235;68499;-63
2023/05/26 12:52:33;;;;;;;;;;;;;;;19.47;65.55;96946.09;599032;235;65137;-63
2023/05/26 12:55:00;;;;;;;;;;;;;;;19.48;65.60;96937.05;598980;237;68241;-62